sensor_id;sensor_type;location;lat;lon;timestamp;P1;durP1;ratioP1;P2;durP2;ratioP2
66542;SDS011;53395;37.360;-122.046;2023-09-19T00:01:20;5.55;;;1.95;;
66542;SDS011;53395;37.360;-122.046;2023-09-19T00:04:05;6.90;;;2.25;;
66542;SDS011;53395;37.360;-122.046;2023-09-19T00:06:54;5.38;;;1.95;;
66542;SDS011;53395;37.360;-122.046;2023-09-19T00:09:39;4.03;;;2.00;;
66542;SDS011;53395;37.360;-122.046;2023-09-19T00:12:23;4.93;;;1.90;;
66542;SDS011;53395;37.360;-122.046;2023-09-19T00:15:08;5.22;;;2.00;;
66542;SDS011;53395;37.360;-122.046;2023-09-19T00:17:55;6.28;;;1.80;;
66542;SDS011;53395;37.360;-122.046;2023-09-19T00:20:39;9.13;;;2.25;;
66542;SDS011;53395;37.360;-122.046;2023-09-19T00:23:26;7.25;;;2.20;;
66542;SDS011;53395;37.360;-122.046;2023-09-19T00:26:11;6.00;;;2.10;;
66542;SDS011;53395;37.360;-122.046;2023-09-19T00:28:56;4.95;;;1.75;;
66542;SDS011;53395;37.360;-122.046;2023-09-19T00:31:42;7.32;;;1.92;;
66542;SDS011;53395;37.360;-122.046;2023-09-19T00:34:27;3.60;;;1.40;;
66542;SDS011;53395;37.360;-122.046;2023-09-19T00:37:12;4.15;;;1.27;;
66542;SDS011;53395;37.360;-122.046;2023-09-19T00:39:56;3.97;;;1.20;;
66542;SDS011;53395;37.360;-122.046;2023-09-19T00:42:42;3.20;;;0.93;;
66542;SDS011;53395;37.360;-122.046;2023-09-19T00:45:26;3.40;;;1.40;;
66542;SDS011;53395;37.360;-122.046;2023-09-19T00:48:12;3.10;;;1.88;;
66542;SDS011;53395;37.360;-122.046;2023-09-19T00:51:02;1.98;;;1.02;;
66542;SDS011;53395;37.360;-122.046;2023-09-19T00:53:48;4.43;;;1.40;;
66542;SDS011;53395;37.360;-122.046;2023-09-19T00:56:33;3.22;;;1.20;;
66542;SDS011;53395;37.360;-122.046;2023-09-19T00:59:17;3.42;;;1.27;;
66542;SDS011;53395;37.360;-122.046;2023-09-19T01:02:02;3.03;;;1.27;;
66542;SDS011;53395;37.360;-122.046;2023-09-19T01:04:47;3.95;;;1.33;;
66542;SDS011;53395;37.360;-122.046;2023-09-19T01:07:32;3.35;;;1.00;;
66542;SDS011;53395;37.360;-122.046;2023-09-19T01:10:18;2.35;;;1.05;;
66542;SDS011;53395;37.360;-122.046;2023-09-19T01:13:13;2.92;;;1.10;;
66542;SDS011;53395;37.360;-122.046;2023-09-19T01:16:03;4.45;;;1.23;;
66542;SDS011;53395;37.360;-122.046;2023-09-19T01:18:55;3.03;;;1.20;;
66542;SDS011;53395;37.360;-122.046;2023-09-19T01:21:44;4.53;;;1.30;;
66542;SDS011;53395;37.360;-122.046;2023-09-19T01:30:14;3.30;;;1.40;;
66542;SDS011;53395;37.360;-122.046;2023-09-19T01:33:01;3.72;;;1.30;;
66542;SDS011;53395;37.360;-122.046;2023-09-19T01:35:48;4.43;;;1.30;;
66542;SDS011;53395;37.360;-122.046;2023-09-19T01:38:33;4.43;;;1.50;;
66542;SDS011;53395;37.360;-122.046;2023-09-19T01:41:21;3.95;;;1.33;;
66542;SDS011;53395;37.360;-122.046;2023-09-19T01:44:11;3.58;;;1.50;;
66542;SDS011;53395;37.360;-122.046;2023-09-19T01:46:58;6.40;;;1.90;;
66542;SDS011;53395;37.360;-122.046;2023-09-19T01:49:44;9.60;;;1.70;;
66542;SDS011;53395;37.360;-122.046;2023-09-19T01:52:35;5.85;;;1.33;;
66542;SDS011;53395;37.360;-122.046;2023-09-19T01:55:20;4.95;;;1.40;;
66542;SDS011;53395;37.360;-122.046;2023-09-19T01:58:07;5.70;;;1.42;;
66542;SDS011;53395;37.360;-122.046;2023-09-19T02:00:53;2.60;;;1.30;;
66542;SDS011;53395;37.360;-122.046;2023-09-19T02:03:39;4.75;;;1.52;;
66542;SDS011;53395;37.360;-122.046;2023-09-19T02:06:24;3.67;;;1.42;;
66542;SDS011;53395;37.360;-122.046;2023-09-19T02:09:09;5.97;;;1.70;;
66542;SDS011;53395;37.360;-122.046;2023-09-19T02:11:54;4.47;;;1.85;;
66542;SDS011;53395;37.360;-122.046;2023-09-19T02:14:40;5.13;;;1.42;;
66542;SDS011;53395;37.360;-122.046;2023-09-19T02:17:25;5.35;;;1.73;;
66542;SDS011;53395;37.360;-122.046;2023-09-19T02:20:10;3.72;;;1.33;;
66542;SDS011;53395;37.360;-122.046;2023-09-19T02:22:58;5.10;;;1.48;;
66542;SDS011;53395;37.360;-122.046;2023-09-19T02:25:51;3.80;;;1.50;;
66542;SDS011;53395;37.360;-122.046;2023-09-19T02:28:35;3.92;;;1.65;;
66542;SDS011;53395;37.360;-122.046;2023-09-19T02:31:20;3.75;;;1.48;;
66542;SDS011;53395;37.360;-122.046;2023-09-19T02:34:04;5.07;;;1.80;;
66542;SDS011;53395;37.360;-122.046;2023-09-19T02:36:50;4.78;;;1.55;;
66542;SDS011;53395;37.360;-122.046;2023-09-19T02:39:37;5.53;;;2.10;;
66542;SDS011;53395;37.360;-122.046;2023-09-19T02:42:22;5.45;;;1.70;;
66542;SDS011;53395;37.360;-122.046;2023-09-19T02:45:07;5.55;;;2.08;;
66542;SDS011;53395;37.360;-122.046;2023-09-19T02:47:51;4.05;;;1.88;;
66542;SDS011;53395;37.360;-122.046;2023-09-19T02:50:36;5.75;;;1.98;;
66542;SDS011;53395;37.360;-122.046;2023-09-19T02:53:21;4.07;;;1.65;;
66542;SDS011;53395;37.360;-122.046;2023-09-19T02:56:06;5.10;;;2.13;;
66542;SDS011;53395;37.360;-122.046;2023-09-19T03:01:35;3.85;;;1.73;;
66542;SDS011;53395;37.360;-122.046;2023-09-19T03:04:22;4.80;;;1.77;;
66542;SDS011;53395;37.360;-122.046;2023-09-19T03:07:07;5.70;;;2.10;;
66542;SDS011;53395;37.360;-122.046;2023-09-19T03:09:51;5.65;;;2.17;;
66542;SDS011;53395;37.360;-122.046;2023-09-19T03:12:36;4.78;;;1.75;;
66542;SDS011;53395;37.360;-122.046;2023-09-19T03:15:22;5.82;;;2.00;;
66542;SDS011;53395;37.360;-122.046;2023-09-19T03:18:06;5.10;;;1.70;;
66542;SDS011;53395;37.360;-122.046;2023-09-19T03:20:53;6.28;;;1.80;;
66542;SDS011;53395;37.360;-122.046;2023-09-19T03:23:41;5.15;;;1.98;;
66542;SDS011;53395;37.360;-122.046;2023-09-19T03:26:29;4.80;;;1.92;;
66542;SDS011;53395;37.360;-122.046;2023-09-19T03:29:14;8.00;;;1.95;;
66542;SDS011;53395;37.360;-122.046;2023-09-19T03:31:59;5.18;;;2.03;;
66542;SDS011;53395;37.360;-122.046;2023-09-19T03:34:44;5.32;;;2.00;;
66542;SDS011;53395;37.360;-122.046;2023-09-19T03:37:29;4.82;;;1.90;;
66542;SDS011;53395;37.360;-122.046;2023-09-19T03:40:13;9.25;;;2.10;;
66542;SDS011;53395;37.360;-122.046;2023-09-19T03:43:03;6.28;;;1.90;;
66542;SDS011;53395;37.360;-122.046;2023-09-19T03:45:47;4.10;;;1.80;;
66542;SDS011;53395;37.360;-122.046;2023-09-19T03:48:33;4.72;;;1.95;;
66542;SDS011;53395;37.360;-122.046;2023-09-19T03:51:17;3.95;;;1.90;;
66542;SDS011;53395;37.360;-122.046;2023-09-19T03:54:02;4.07;;;1.80;;
66542;SDS011;53395;37.360;-122.046;2023-09-19T03:56:48;4.43;;;1.95;;
66542;SDS011;53395;37.360;-122.046;2023-09-19T03:59:32;3.35;;;1.83;;
66542;SDS011;53395;37.360;-122.046;2023-09-19T04:02:17;4.85;;;1.85;;
66542;SDS011;53395;37.360;-122.046;2023-09-19T04:05:16;4.72;;;1.55;;
66542;SDS011;53395;37.360;-122.046;2023-09-19T04:08:01;5.18;;;2.15;;
66542;SDS011;53395;37.360;-122.046;2023-09-19T04:10:49;4.78;;;1.70;;
66542;SDS011;53395;37.360;-122.046;2023-09-19T04:13:34;4.25;;;1.98;;
66542;SDS011;53395;37.360;-122.046;2023-09-19T04:16:18;4.03;;;1.70;;
66542;SDS011;53395;37.360;-122.046;2023-09-19T04:19:03;4.38;;;1.52;;
66542;SDS011;53395;37.360;-122.046;2023-09-19T04:21:48;3.03;;;1.52;;
66542;SDS011;53395;37.360;-122.046;2023-09-19T04:24:32;3.63;;;1.60;;
66542;SDS011;53395;37.360;-122.046;2023-09-19T04:27:18;2.97;;;1.67;;
66542;SDS011;53395;37.360;-122.046;2023-09-19T04:30:06;6.05;;;1.92;;
66542;SDS011;53395;37.360;-122.046;2023-09-19T04:32:55;4.68;;;1.55;;
66542;SDS011;53395;37.360;-122.046;2023-09-19T04:35:40;4.20;;;1.88;;
66542;SDS011;53395;37.360;-122.046;2023-09-19T04:38:26;5.18;;;1.83;;
66542;SDS011;53395;37.360;-122.046;2023-09-19T04:41:12;5.40;;;2.22;;
66542;SDS011;53395;37.360;-122.046;2023-09-19T04:43:59;6.85;;;1.80;;
66542;SDS011;53395;37.360;-122.046;2023-09-19T04:46:43;3.85;;;1.80;;
66542;SDS011;53395;37.360;-122.046;2023-09-19T04:49:28;4.70;;;1.70;;
66542;SDS011;53395;37.360;-122.046;2023-09-19T04:52:13;3.67;;;1.80;;
66542;SDS011;53395;37.360;-122.046;2023-09-19T04:54:59;4.03;;;1.67;;
66542;SDS011;53395;37.360;-122.046;2023-09-19T04:57:46;5.30;;;1.98;;
66542;SDS011;53395;37.360;-122.046;2023-09-19T05:00:31;5.75;;;2.08;;
66542;SDS011;53395;37.360;-122.046;2023-09-19T05:03:18;6.20;;;2.05;;
66542;SDS011;53395;37.360;-122.046;2023-09-19T05:06:04;4.75;;;2.00;;
66542;SDS011;53395;37.360;-122.046;2023-09-19T05:08:49;4.68;;;2.28;;
66542;SDS011;53395;37.360;-122.046;2023-09-19T05:11:36;3.58;;;1.80;;
66542;SDS011;53395;37.360;-122.046;2023-09-19T05:14:22;4.63;;;2.00;;
66542;SDS011;53395;37.360;-122.046;2023-09-19T05:17:07;4.57;;;2.05;;
66542;SDS011;53395;37.360;-122.046;2023-09-19T05:19:51;4.97;;;2.33;;
66542;SDS011;53395;37.360;-122.046;2023-09-19T05:22:36;5.82;;;2.22;;
66542;SDS011;53395;37.360;-122.046;2023-09-19T05:25:24;5.22;;;2.17;;
66542;SDS011;53395;37.360;-122.046;2023-09-19T05:28:09;5.47;;;2.85;;
66542;SDS011;53395;37.360;-122.046;2023-09-19T05:30:56;4.57;;;1.95;;
66542;SDS011;53395;37.360;-122.046;2023-09-19T05:33:41;4.10;;;2.10;;
66542;SDS011;53395;37.360;-122.046;2023-09-19T05:36:26;4.28;;;2.35;;
66542;SDS011;53395;37.360;-122.046;2023-09-19T05:39:13;4.82;;;1.92;;
66542;SDS011;53395;37.360;-122.046;2023-09-19T05:41:58;9.60;;;2.72;;
66542;SDS011;53395;37.360;-122.046;2023-09-19T05:44:44;4.30;;;2.22;;
66542;SDS011;53395;37.360;-122.046;2023-09-19T05:47:28;3.95;;;2.05;;
66542;SDS011;53395;37.360;-122.046;2023-09-19T05:50:12;4.72;;;2.28;;
66542;SDS011;53395;37.360;-122.046;2023-09-19T05:52:59;4.15;;;1.90;;
66542;SDS011;53395;37.360;-122.046;2023-09-19T05:55:43;4.82;;;2.20;;
66542;SDS011;53395;37.360;-122.046;2023-09-19T05:58:28;6.10;;;1.83;;
66542;SDS011;53395;37.360;-122.046;2023-09-19T06:01:12;5.40;;;2.30;;
66542;SDS011;53395;37.360;-122.046;2023-09-19T06:03:57;3.88;;;2.20;;
66542;SDS011;53395;37.360;-122.046;2023-09-19T06:06:44;5.93;;;2.20;;
66542;SDS011;53395;37.360;-122.046;2023-09-19T06:09:28;4.80;;;2.05;;
66542;SDS011;53395;37.360;-122.046;2023-09-19T06:12:16;4.72;;;2.13;;
66542;SDS011;53395;37.360;-122.046;2023-09-19T06:15:01;4.53;;;2.10;;
66542;SDS011;53395;37.360;-122.046;2023-09-19T06:17:50;5.30;;;2.28;;
66542;SDS011;53395;37.360;-122.046;2023-09-19T06:20:35;4.20;;;1.88;;
66542;SDS011;53395;37.360;-122.046;2023-09-19T06:23:20;4.28;;;2.10;;
66542;SDS011;53395;37.360;-122.046;2023-09-19T06:26:05;4.07;;;2.03;;
66542;SDS011;53395;37.360;-122.046;2023-09-19T06:28:50;4.95;;;2.10;;
66542;SDS011;53395;37.360;-122.046;2023-09-19T06:31:35;5.68;;;2.30;;
66542;SDS011;53395;37.360;-122.046;2023-09-19T06:34:19;5.65;;;2.42;;
66542;SDS011;53395;37.360;-122.046;2023-09-19T06:37:04;4.55;;;2.17;;
66542;SDS011;53395;37.360;-122.046;2023-09-19T06:39:52;4.97;;;2.42;;
66542;SDS011;53395;37.360;-122.046;2023-09-19T06:42:37;3.28;;;1.85;;
66542;SDS011;53395;37.360;-122.046;2023-09-19T06:45:21;4.70;;;2.30;;
66542;SDS011;53395;37.360;-122.046;2023-09-19T06:48:07;3.70;;;1.95;;
66542;SDS011;53395;37.360;-122.046;2023-09-19T06:50:53;3.72;;;1.98;;
66542;SDS011;53395;37.360;-122.046;2023-09-19T06:53:39;5.95;;;2.30;;
66542;SDS011;53395;37.360;-122.046;2023-09-19T06:56:23;5.68;;;2.17;;
66542;SDS011;53395;37.360;-122.046;2023-09-19T06:59:09;4.40;;;2.17;;
66542;SDS011;53395;37.360;-122.046;2023-09-19T07:01:54;5.43;;;2.30;;
66542;SDS011;53395;37.360;-122.046;2023-09-19T07:04:39;5.88;;;2.55;;
66542;SDS011;53395;37.360;-122.046;2023-09-19T07:07:23;4.60;;;2.05;;
66542;SDS011;53395;37.360;-122.046;2023-09-19T07:10:07;5.55;;;2.85;;
66542;SDS011;53395;37.360;-122.046;2023-09-19T07:12:55;3.47;;;2.10;;
66542;SDS011;53395;37.360;-122.046;2023-09-19T07:15:41;5.25;;;2.17;;
66542;SDS011;53395;37.360;-122.046;2023-09-19T07:18:30;6.07;;;2.10;;
66542;SDS011;53395;37.360;-122.046;2023-09-19T07:21:18;5.72;;;2.15;;
66542;SDS011;53395;37.360;-122.046;2023-09-19T07:24:03;4.28;;;1.92;;
66542;SDS011;53395;37.360;-122.046;2023-09-19T07:26:47;5.90;;;2.47;;
66542;SDS011;53395;37.360;-122.046;2023-09-19T07:29:33;4.55;;;1.90;;
66542;SDS011;53395;37.360;-122.046;2023-09-19T07:32:18;4.00;;;2.08;;
66542;SDS011;53395;37.360;-122.046;2023-09-19T07:35:02;3.50;;;1.90;;
66542;SDS011;53395;37.360;-122.046;2023-09-19T07:37:48;4.85;;;1.63;;
66542;SDS011;53395;37.360;-122.046;2023-09-19T07:40:33;4.35;;;1.65;;
66542;SDS011;53395;37.360;-122.046;2023-09-19T07:43:18;4.82;;;2.03;;
66542;SDS011;53395;37.360;-122.046;2023-09-19T07:46:05;4.90;;;1.80;;
66542;SDS011;53395;37.360;-122.046;2023-09-19T07:48:51;4.50;;;2.00;;
66542;SDS011;53395;37.360;-122.046;2023-09-19T07:51:35;4.15;;;1.90;;
66542;SDS011;53395;37.360;-122.046;2023-09-19T07:54:20;4.95;;;1.90;;
66542;SDS011;53395;37.360;-122.046;2023-09-19T07:57:05;4.45;;;1.92;;
66542;SDS011;53395;37.360;-122.046;2023-09-19T07:59:49;4.13;;;1.80;;
66542;SDS011;53395;37.360;-122.046;2023-09-19T08:02:35;3.63;;;1.70;;
66542;SDS011;53395;37.360;-122.046;2023-09-19T08:05:19;4.57;;;1.83;;
66542;SDS011;53395;37.360;-122.046;2023-09-19T08:08:04;5.18;;;1.65;;
66542;SDS011;53395;37.360;-122.046;2023-09-19T08:10:54;4.38;;;1.88;;
66542;SDS011;53395;37.360;-122.046;2023-09-19T08:13:40;5.15;;;1.73;;
66542;SDS011;53395;37.360;-122.046;2023-09-19T08:16:27;4.50;;;2.03;;
66542;SDS011;53395;37.360;-122.046;2023-09-19T08:19:12;2.92;;;1.80;;
66542;SDS011;53395;37.360;-122.046;2023-09-19T08:21:57;3.85;;;1.80;;
66542;SDS011;53395;37.360;-122.046;2023-09-19T08:24:47;4.07;;;1.77;;
66542;SDS011;53395;37.360;-122.046;2023-09-19T08:27:32;4.60;;;2.22;;
66542;SDS011;53395;37.360;-122.046;2023-09-19T08:30:19;3.35;;;1.80;;
66542;SDS011;53395;37.360;-122.046;2023-09-19T08:33:08;3.53;;;1.83;;
66542;SDS011;53395;37.360;-122.046;2023-09-19T08:35:55;4.18;;;1.83;;
66542;SDS011;53395;37.360;-122.046;2023-09-19T08:38:39;5.20;;;1.98;;
66542;SDS011;53395;37.360;-122.046;2023-09-19T08:41:24;4.50;;;1.70;;
66542;SDS011;53395;37.360;-122.046;2023-09-19T08:44:08;4.07;;;1.80;;
66542;SDS011;53395;37.360;-122.046;2023-09-19T08:46:54;3.25;;;1.60;;
66542;SDS011;53395;37.360;-122.046;2023-09-19T08:52:30;4.35;;;1.70;;
66542;SDS011;53395;37.360;-122.046;2023-09-19T08:55:17;4.78;;;1.92;;
66542;SDS011;53395;37.360;-122.046;2023-09-19T08:58:06;3.42;;;1.50;;
66542;SDS011;53395;37.360;-122.046;2023-09-19T09:00:52;4.85;;;1.85;;
66542;SDS011;53395;37.360;-122.046;2023-09-19T09:03:37;3.53;;;1.73;;
66542;SDS011;53395;37.360;-122.046;2023-09-19T09:06:25;2.88;;;1.65;;
66542;SDS011;53395;37.360;-122.046;2023-09-19T09:09:09;4.10;;;1.33;;
66542;SDS011;53395;37.360;-122.046;2023-09-19T09:11:54;3.00;;;1.60;;
66542;SDS011;53395;37.360;-122.046;2023-09-19T09:14:43;2.72;;;1.35;;
66542;SDS011;53395;37.360;-122.046;2023-09-19T09:17:29;6.22;;;1.70;;
66542;SDS011;53395;37.360;-122.046;2023-09-19T09:20:14;3.47;;;1.77;;
66542;SDS011;53395;37.360;-122.046;2023-09-19T09:23:00;3.58;;;1.52;;
66542;SDS011;53395;37.360;-122.046;2023-09-19T09:25:52;3.10;;;1.48;;
66542;SDS011;53395;37.360;-122.046;2023-09-19T09:28:44;4.45;;;1.60;;
66542;SDS011;53395;37.360;-122.046;2023-09-19T09:31:29;4.13;;;1.60;;
66542;SDS011;53395;37.360;-122.046;2023-09-19T09:34:14;3.08;;;1.70;;
66542;SDS011;53395;37.360;-122.046;2023-09-19T09:36:59;3.00;;;1.40;;
66542;SDS011;53395;37.360;-122.046;2023-09-19T09:43:02;4.57;;;1.88;;
66542;SDS011;53395;37.360;-122.046;2023-09-19T09:45:47;6.22;;;1.80;;
66542;SDS011;53395;37.360;-122.046;2023-09-19T09:49:03;4.95;;;1.88;;
66542;SDS011;53395;37.360;-122.046;2023-09-19T09:52:03;2.78;;;1.35;;
66542;SDS011;53395;37.360;-122.046;2023-09-19T09:55:07;4.95;;;1.60;;
66542;SDS011;53395;37.360;-122.046;2023-09-19T10:00:56;4.40;;;1.30;;
66542;SDS011;53395;37.360;-122.046;2023-09-19T10:04:00;3.92;;;1.80;;
66542;SDS011;53395;37.360;-122.046;2023-09-19T10:06:45;4.47;;;1.70;;
66542;SDS011;53395;37.360;-122.046;2023-09-19T10:09:45;4.13;;;1.73;;
66542;SDS011;53395;37.360;-122.046;2023-09-19T10:12:31;3.38;;;1.27;;
66542;SDS011;53395;37.360;-122.046;2023-09-19T10:15:19;4.07;;;1.65;;
66542;SDS011;53395;37.360;-122.046;2023-09-19T10:18:10;4.15;;;1.67;;
66542;SDS011;53395;37.360;-122.046;2023-09-19T10:20:56;3.63;;;1.50;;
66542;SDS011;53395;37.360;-122.046;2023-09-19T10:23:41;3.20;;;1.60;;
66542;SDS011;53395;37.360;-122.046;2023-09-19T10:26:28;3.03;;;1.65;;
66542;SDS011;53395;37.360;-122.046;2023-09-19T10:29:15;4.10;;;1.70;;
66542;SDS011;53395;37.360;-122.046;2023-09-19T10:32:01;3.92;;;1.50;;
66542;SDS011;53395;37.360;-122.046;2023-09-19T10:34:50;3.60;;;1.73;;
66542;SDS011;53395;37.360;-122.046;2023-09-19T10:37:34;3.38;;;1.50;;
66542;SDS011;53395;37.360;-122.046;2023-09-19T10:40:21;3.55;;;1.73;;
66542;SDS011;53395;37.360;-122.046;2023-09-19T10:43:18;5.85;;;1.58;;
66542;SDS011;53395;37.360;-122.046;2023-09-19T10:46:03;3.80;;;1.80;;
66542;SDS011;53395;37.360;-122.046;2023-09-19T10:48:51;3.90;;;1.70;;
66542;SDS011;53395;37.360;-122.046;2023-09-19T10:51:41;2.60;;;1.60;;
66542;SDS011;53395;37.360;-122.046;2023-09-19T10:54:31;3.65;;;1.70;;
66542;SDS011;53395;37.360;-122.046;2023-09-19T10:57:21;4.00;;;1.88;;
66542;SDS011;53395;37.360;-122.046;2023-09-19T11:00:08;4.63;;;1.65;;
66542;SDS011;53395;37.360;-122.046;2023-09-19T11:06:02;3.30;;;1.98;;
66542;SDS011;53395;37.360;-122.046;2023-09-19T11:11:55;3.50;;;1.60;;
66542;SDS011;53395;37.360;-122.046;2023-09-19T11:14:41;3.90;;;1.42;;
66542;SDS011;53395;37.360;-122.046;2023-09-19T11:20:17;3.88;;;1.80;;
66542;SDS011;53395;37.360;-122.046;2023-09-19T11:25:56;6.05;;;2.20;;
66542;SDS011;53395;37.360;-122.046;2023-09-19T11:28:41;3.80;;;2.00;;
66542;SDS011;53395;37.360;-122.046;2023-09-19T11:31:42;5.00;;;2.03;;
66542;SDS011;53395;37.360;-122.046;2023-09-19T11:40:13;4.45;;;1.95;;
66542;SDS011;53395;37.360;-122.046;2023-09-19T11:43:00;4.05;;;1.80;;
66542;SDS011;53395;37.360;-122.046;2023-09-19T11:46:04;6.20;;;2.20;;
66542;SDS011;53395;37.360;-122.046;2023-09-19T11:48:49;3.63;;;1.75;;
66542;SDS011;53395;37.360;-122.046;2023-09-19T11:51:40;5.78;;;1.73;;
66542;SDS011;53395;37.360;-122.046;2023-09-19T11:54:27;5.18;;;1.70;;
66542;SDS011;53395;37.360;-122.046;2023-09-19T11:57:20;5.07;;;2.05;;
66542;SDS011;53395;37.360;-122.046;2023-09-19T12:00:04;5.43;;;1.90;;
66542;SDS011;53395;37.360;-122.046;2023-09-19T12:02:49;5.00;;;1.95;;
66542;SDS011;53395;37.360;-122.046;2023-09-19T12:05:40;5.05;;;2.10;;
66542;SDS011;53395;37.360;-122.046;2023-09-19T12:08:25;3.30;;;1.60;;
66542;SDS011;53395;37.360;-122.046;2023-09-19T12:11:14;5.30;;;1.80;;
66542;SDS011;53395;37.360;-122.046;2023-09-19T12:14:00;8.02;;;2.20;;
66542;SDS011;53395;37.360;-122.046;2023-09-19T12:16:50;2.90;;;1.67;;
66542;SDS011;53395;37.360;-122.046;2023-09-19T12:19:40;6.35;;;1.75;;
66542;SDS011;53395;37.360;-122.046;2023-09-19T12:22:28;3.90;;;1.75;;
66542;SDS011;53395;37.360;-122.046;2023-09-19T12:25:23;5.53;;;1.70;;
66542;SDS011;53395;37.360;-122.046;2023-09-19T12:28:09;3.67;;;1.55;;
66542;SDS011;53395;37.360;-122.046;2023-09-19T12:30:54;4.90;;;1.92;;
66542;SDS011;53395;37.360;-122.046;2023-09-19T12:33:41;5.72;;;1.60;;
66542;SDS011;53395;37.360;-122.046;2023-09-19T12:36:26;4.00;;;1.70;;
66542;SDS011;53395;37.360;-122.046;2023-09-19T12:39:23;5.50;;;2.20;;
66542;SDS011;53395;37.360;-122.046;2023-09-19T12:42:10;4.47;;;2.10;;
66542;SDS011;53395;37.360;-122.046;2023-09-19T12:44:54;4.47;;;1.95;;
66542;SDS011;53395;37.360;-122.046;2023-09-19T12:47:40;7.53;;;2.40;;
66542;SDS011;53395;37.360;-122.046;2023-09-19T12:50:27;3.33;;;1.83;;
66542;SDS011;53395;37.360;-122.046;2023-09-19T12:53:24;5.05;;;1.92;;
66542;SDS011;53395;37.360;-122.046;2023-09-19T12:56:12;5.78;;;1.85;;
66542;SDS011;53395;37.360;-122.046;2023-09-19T12:58:58;6.38;;;2.00;;
66542;SDS011;53395;37.360;-122.046;2023-09-19T13:01:44;5.32;;;2.05;;
66542;SDS011;53395;37.360;-122.046;2023-09-19T13:04:30;3.72;;;1.85;;
66542;SDS011;53395;37.360;-122.046;2023-09-19T13:10:20;4.70;;;2.08;;
66542;SDS011;53395;37.360;-122.046;2023-09-19T13:13:23;4.63;;;2.30;;
66542;SDS011;53395;37.360;-122.046;2023-09-19T13:16:11;3.60;;;2.08;;
66542;SDS011;53395;37.360;-122.046;2023-09-19T13:18:59;2.85;;;1.70;;
66542;SDS011;53395;37.360;-122.046;2023-09-19T13:21:44;5.57;;;2.40;;
66542;SDS011;53395;37.360;-122.046;2023-09-19T13:24:33;8.10;;;2.45;;
66542;SDS011;53395;37.360;-122.046;2023-09-19T13:27:20;4.65;;;2.50;;
66542;SDS011;53395;37.360;-122.046;2023-09-19T13:30:06;4.55;;;2.20;;
66542;SDS011;53395;37.360;-122.046;2023-09-19T13:32:50;4.30;;;2.13;;
66542;SDS011;53395;37.360;-122.046;2023-09-19T13:35:36;4.05;;;2.20;;
66542;SDS011;53395;37.360;-122.046;2023-09-19T13:38:22;4.97;;;2.10;;
66542;SDS011;53395;37.360;-122.046;2023-09-19T13:41:06;5.45;;;2.67;;
66542;SDS011;53395;37.360;-122.046;2023-09-19T13:43:51;4.22;;;2.03;;
66542;SDS011;53395;37.360;-122.046;2023-09-19T13:46:37;4.05;;;2.00;;
66542;SDS011;53395;37.360;-122.046;2023-09-19T13:49:21;4.22;;;2.30;;
66542;SDS011;53395;37.360;-122.046;2023-09-19T13:54:51;5.50;;;2.10;;
66542;SDS011;53395;37.360;-122.046;2023-09-19T13:57:36;4.43;;;1.92;;
66542;SDS011;53395;37.360;-122.046;2023-09-19T14:00:24;5.25;;;2.03;;
66542;SDS011;53395;37.360;-122.046;2023-09-19T14:03:08;4.43;;;2.10;;
66542;SDS011;53395;37.360;-122.046;2023-09-19T14:05:55;5.63;;;2.40;;
66542;SDS011;53395;37.360;-122.046;2023-09-19T14:08:39;4.15;;;2.17;;
66542;SDS011;53395;37.360;-122.046;2023-09-19T14:11:24;4.88;;;2.42;;
66542;SDS011;53395;37.360;-122.046;2023-09-19T14:14:11;5.05;;;2.33;;
66542;SDS011;53395;37.360;-122.046;2023-09-19T14:16:55;8.43;;;2.42;;
66542;SDS011;53395;37.360;-122.046;2023-09-19T14:19:40;5.18;;;2.30;;
66542;SDS011;53395;37.360;-122.046;2023-09-19T14:22:26;5.55;;;2.00;;
66542;SDS011;53395;37.360;-122.046;2023-09-19T14:25:11;4.97;;;2.28;;
66542;SDS011;53395;37.360;-122.046;2023-09-19T14:27:56;7.03;;;2.55;;
66542;SDS011;53395;37.360;-122.046;2023-09-19T14:30:41;4.20;;;2.55;;
66542;SDS011;53395;37.360;-122.046;2023-09-19T14:33:25;4.93;;;2.60;;
66542;SDS011;53395;37.360;-122.046;2023-09-19T14:36:09;5.72;;;2.35;;
66542;SDS011;53395;37.360;-122.046;2023-09-19T14:38:55;5.38;;;2.15;;
66542;SDS011;53395;37.360;-122.046;2023-09-19T14:41:41;6.50;;;2.70;;
66542;SDS011;53395;37.360;-122.046;2023-09-19T14:44:25;5.05;;;2.30;;
66542;SDS011;53395;37.360;-122.046;2023-09-19T14:47:12;6.75;;;2.50;;
66542;SDS011;53395;37.360;-122.046;2023-09-19T14:49:57;5.95;;;2.60;;
66542;SDS011;53395;37.360;-122.046;2023-09-19T14:52:42;5.43;;;2.60;;
66542;SDS011;53395;37.360;-122.046;2023-09-19T14:58:13;5.47;;;2.78;;
66542;SDS011;53395;37.360;-122.046;2023-09-19T15:01:02;7.25;;;2.78;;
66542;SDS011;53395;37.360;-122.046;2023-09-19T15:03:47;7.93;;;2.88;;
66542;SDS011;53395;37.360;-122.046;2023-09-19T15:06:33;7.97;;;3.45;;
66542;SDS011;53395;37.360;-122.046;2023-09-19T15:09:18;9.35;;;3.80;;
66542;SDS011;53395;37.360;-122.046;2023-09-19T15:12:03;6.38;;;3.45;;
66542;SDS011;53395;37.360;-122.046;2023-09-19T15:14:47;8.55;;;4.25;;
66542;SDS011;53395;37.360;-122.046;2023-09-19T15:17:32;8.57;;;3.90;;
66542;SDS011;53395;37.360;-122.046;2023-09-19T15:20:17;9.18;;;4.65;;
66542;SDS011;53395;37.360;-122.046;2023-09-19T15:23:02;12.65;;;5.45;;
66542;SDS011;53395;37.360;-122.046;2023-09-19T15:25:49;12.00;;;5.05;;
66542;SDS011;53395;37.360;-122.046;2023-09-19T15:28:35;15.02;;;6.10;;
66542;SDS011;53395;37.360;-122.046;2023-09-19T15:31:19;16.60;;;6.93;;
66542;SDS011;53395;37.360;-122.046;2023-09-19T15:34:04;13.82;;;6.18;;
66542;SDS011;53395;37.360;-122.046;2023-09-19T15:36:49;15.25;;;6.47;;
66542;SDS011;53395;37.360;-122.046;2023-09-19T15:42:21;15.13;;;6.22;;
66542;SDS011;53395;37.360;-122.046;2023-09-19T15:45:06;14.95;;;6.53;;
66542;SDS011;53395;37.360;-122.046;2023-09-19T15:47:53;12.45;;;6.35;;
66542;SDS011;53395;37.360;-122.046;2023-09-19T15:50:38;11.77;;;5.82;;
66542;SDS011;53395;37.360;-122.046;2023-09-19T15:53:22;12.45;;;6.10;;
66542;SDS011;53395;37.360;-122.046;2023-09-19T15:56:07;11.82;;;6.13;;
66542;SDS011;53395;37.360;-122.046;2023-09-19T15:58:52;12.65;;;5.97;;
66542;SDS011;53395;37.360;-122.046;2023-09-19T16:01:37;17.92;;;7.18;;
66542;SDS011;53395;37.360;-122.046;2023-09-19T16:04:22;15.38;;;7.00;;
66542;SDS011;53395;37.360;-122.046;2023-09-19T16:07:06;29.45;;;8.93;;
66542;SDS011;53395;37.360;-122.046;2023-09-19T16:09:51;15.75;;;6.80;;
66542;SDS011;53395;37.360;-122.046;2023-09-19T16:12:36;15.48;;;7.00;;
66542;SDS011;53395;37.360;-122.046;2023-09-19T16:15:22;14.38;;;6.80;;
66542;SDS011;53395;37.360;-122.046;2023-09-19T16:18:06;20.38;;;6.38;;
66542;SDS011;53395;37.360;-122.046;2023-09-19T16:20:51;15.65;;;6.53;;
66542;SDS011;53395;37.360;-122.046;2023-09-19T16:23:36;14.15;;;7.00;;
66542;SDS011;53395;37.360;-122.046;2023-09-19T16:26:22;15.57;;;6.60;;
66542;SDS011;53395;37.360;-122.046;2023-09-19T16:29:07;14.57;;;7.13;;
66542;SDS011;53395;37.360;-122.046;2023-09-19T16:31:55;13.10;;;7.03;;
66542;SDS011;53395;37.360;-122.046;2023-09-19T16:34:39;16.65;;;6.55;;
66542;SDS011;53395;37.360;-122.046;2023-09-19T16:40:09;16.85;;;7.60;;
66542;SDS011;53395;37.360;-122.046;2023-09-19T16:42:54;16.38;;;7.35;;
66542;SDS011;53395;37.360;-122.046;2023-09-19T16:45:38;15.10;;;6.80;;
66542;SDS011;53395;37.360;-122.046;2023-09-19T16:48:24;14.90;;;6.45;;